Meteo Giornale » Osservazioni meteo Canada » Trenton Ont
ore: 20:00 - Osservazioni Meteo Trenton Ont
Lat. 44° 7' N Lon. 77° 32' W Alt. 85 metri s.l.m.
21 °C
Coperto
Temp. 24 Ore
15 °C
22 °C
Nord
5.5 Km/h
Dew point 19 °C
Umidità 88 %
Visibilità 10 Km
Il sole sorge alle ore 06:32
Il sole tramonta alle ore 19:48
| Data e Ora | Cielo e Fenomeni | T °C | DP °C | Um. % | Pres. hPa | Vis. km | Vento km/h | |
|---|---|---|---|---|---|---|---|---|
| Oggi h: 20:00 | Coperto | 21 | 19 | 88 | 1016 | 10 | N 5.5 | |
| Oggi h: 19:00 | Coperto | 21 | 19 | 88 | 1016 | 24 | N 3.7 | |
| Oggi h: 18:00 | Coperto | 22 | 19 | 83 | 1016 | 24 | N 3.7 | |
| Oggi h: 17:00 | Coperto | 22 | 19 | 83 | 1016 | 24 | N 5.5 | |
| Oggi h: 16:00 | Coperto | 21 | 19 | 88 | 1017 | 19 | N 5.5 | |
| Oggi h: 15:00 | Coperto | 21 | 19 | 88 | 1017 | 19 | S/SE 7.4 | |
| Oggi h: 14:00 | Coperto | 21 | 19 | 88 | 1017 | 13 | S/SE 7.4 | |
| Oggi h: 13:40 | Foschia | 21 | 19 | 88 | 1018 | 10 | N 5.5 | |
| Oggi h: 13:00 | Pioggia | 20 | 19 | 93 | 1018 | 13 | N 3.7 | |
| Oggi h: 12:45 | Pioggia Foschia | 20 | 19 | 93 | 1018 | 6 | SE 9.3 | |
| Oggi h: 12:15 | Pioggia Foschia | 22 | 19 | 83 | 1018 | 3 | S/SE 7.4 | |
| Oggi h: 12:00 | Coperto | 22 | 19 | 83 | 1018 | 24 | S/SE 9.3 | |
| Oggi h: 11:00 | Coperto | 22 | 19 | 83 | 1018 | 24 | SE 9.3 | |
| Oggi h: 10:34 | Coperto | 22 | 19 | 83 | 1018 | 19 | SE 9.3 | |
| Oggi h: 10:00 | Foschia | 21 | 19 | 88 | 1018 | 10 | SE 9.3 | |
| Oggi h: 09:00 | Foschia | 20 | 20 | 100 | 1018 | 6 | N 5.5 | |
| Oggi h: 08:00 | Foschia | 18 | 18 | 100 | 1019 | 3 | N 3.7 | |
| Oggi h: 07:11 | Foschia | 17 | 17 | 100 | 1019 | 3 | N 5.5 | |
| Oggi h: 07:00 | Nebbia | 17 | 17 | 100 | 1018 | 2 | N 5.5 | |
| Oggi h: 06:30 | Nebbia | 16 | 16 | 100 | 1018 | 2 | NE 9.3 | |
| Oggi h: 06:20 | Foschia | 16 | 16 | 100 | 1018 | 3 | NE 7.4 | |
| Oggi h: 06:00 | Foschia | 15 | 15 | 100 | 1018 | 6 | N 3.7 | |
| Oggi h: 05:44 | Foschia | 15 | 15 | 100 | 1018 | 10 | N 5.5 | |
| Oggi h: 05:00 | Foschia | 15 | 15 | 100 | 1018 | 10 | N 3.7 | |
| Oggi h: 04:18 | Foschia | 15 | 15 | 100 | 1018 | 10 | N 3.7 | |
| Oggi h: 04:00 | Nuvoloso | 16 | 16 | 100 | 1018 | 13 | N 3.7 | |
| Oggi h: 03:00 | Nuvoloso | 16 | 16 | 100 | 1019 | 13 | N 3.7 | |
| Oggi h: 02:00 | Molto Nuvoloso | 17 | 17 | 100 | 1019 | 10 | N 3.7 | |
| Oggi h: 01:00 | Molto Nuvoloso | 17 | 17 | 100 | 1019 | 10 | N 3.7 | |
| Oggi h: 00:00 | Molto Nuvoloso | 17 | 17 | 100 | 1019 | 10 | N 3.7 | |
| Ieri h: 23:00 | Molto Nuvoloso | 18 | 17 | 93 | 1019 | 24 | N 3.7 | |
| Ieri h: 22:00 | Molto Nuvoloso | 18 | 18 | 100 | 1019 | 24 | N 3.7 | |
| Ieri h: 21:00 | Molto Nuvoloso | 19 | 18 | 93 | 1018 | 24 | SO 13 | |



